Paducah, KY (42001)

12:59 PM CST on November 23, 2014 (GMT -0600)
Ricks Place Paducah, KY | Change Station
CLOSE
Current Station
Personal Weather Station
Location: Paducah, KY
Elevation: 351 ft
Nearby Weather Stations

Elev 351 ft 37.07 °N, 88.62 °W | Updated 6 minutes ago

Rain
Rain
56.1 °F
Feels Like 56.1 °F
N
3.2
Wind Variable Wind from ESE

Today
High -- | Low -- °F
--% Chance of Precip.
Yesterday
High -- | Low -- °F
Precip. -- in
6:41 AM 4:40 PM
New Moon, 2% visible
Pressure 29.52 in
Visibility 2.5 miles
Clouds Scattered Clouds 700 ft
Mostly Cloudy 1200 ft
Overcast 2600 ft
Dew Point 54 °F
Humidity 92%
Rainfall 0.23 in
Snow Depth Not available.
UV 1 out of 12
Pollen .40 out of 12
Air Quality Not available.
Flu Activity Not available.
METAR KPAH 231853Z 12007KT 2 1/2SM RA BR SCT007 BKN012 OVC026 13/12 A2952 RMK AO2 PRESFR SLP994 P0019 T01330122 $

More Conditions Fewer Conditions

Pressure 29.52 in
Visibility 2.5 miles
Clouds Scattered Clouds 700 ft
Mostly Cloudy 1200 ft
Overcast 2600 ft
Dew Point 54 °F
Humidity 92%
Rainfall 0.23 in
Snow Depth Not available.
UV 1 out of 12
Pollen .40 out of 12
Air Quality Not available.
Flu Activity Not available.
METAR KPAH 231853Z 12007KT 2 1/2SM RA BR SCT007 BKN012 OVC026 13/12 A2952 RMK AO2 PRESFR SLP994 P0019 T01330122 $

More Conditions Fewer Conditions

10-Day Weather Forecast

Almanac

Astronomy

Nov. 23, 2014 Rise Set
Actual Time
Civil Twilight
Nautical Twilight
Astronomical Twilight
Moon
Length of Visible Light
Length of Day
Tomorrow will be .
, % of the Moon is Illuminated

Today's Extremes

State Highs State Lows

Community

WunderPhotos

Upload Photos

1,773,127 photos uploaded!

WunderBlogs® & News

Nearby

Air Quality

  Air Quality AQ Index Pollutant
Not available.

Snow Depth

Station Depth Elevation

Earthquake Activity

City Distance Mag. Time & Date
Minimum magnitude displayed is 2.5.

Coastal Water Temperatures

Place Temperature

Nearby Weather Stations